createdAt,value
2022-09-17T00:01:33.135Z,3.13
2022-09-17T00:04:18.412Z,3.27
2022-09-17T00:07:04.387Z,3.47
2022-09-17T00:09:49.562Z,3.63
2022-09-17T00:12:34.847Z,3.53
2022-09-17T00:15:20.219Z,3.03
2022-09-17T00:18:05.550Z,3.17
2022-09-17T00:20:51.009Z,2.80
2022-09-17T00:23:36.231Z,4.27
2022-09-17T00:26:22.195Z,2.70
2022-09-17T00:29:07.629Z,2.73
2022-09-17T00:31:52.796Z,3.77
2022-09-17T00:34:38.073Z,2.97
2022-09-17T00:37:23.357Z,2.83
2022-09-17T00:40:09.371Z,3.03
2022-09-17T00:42:54.922Z,3.80
2022-09-17T00:45:40.352Z,2.37
2022-09-17T00:48:25.415Z,2.80
2022-09-17T00:51:14.247Z,2.83
2022-09-17T00:54:01.874Z,2.40
2022-09-17T00:56:48.317Z,2.10
2022-09-17T00:59:33.686Z,3.57
2022-09-17T01:02:19.988Z,2.77
2022-09-17T01:05:06.611Z,4.37
2022-09-17T01:08:01.081Z,2.67
2022-09-17T01:11:15.860Z,3.33
2022-09-17T01:14:04.051Z,2.93
2022-09-17T01:17:00.656Z,2.60
2022-09-17T01:20:09.628Z,4.30
2022-09-17T01:23:13.392Z,3.30
2022-09-17T01:26:20.215Z,2.77
2022-09-17T01:29:08.659Z,2.90
2022-09-17T01:32:11.043Z,3.20
2022-09-17T01:35:09.306Z,3.27
2022-09-17T01:38:13.575Z,2.83
2022-09-17T01:41:10.802Z,4.60
2022-09-17T01:44:10.500Z,4.10
2022-09-17T01:47:06.861Z,2.20
2022-09-17T01:49:57.287Z,4.30
2022-09-17T01:52:45.370Z,3.30
2022-09-17T01:55:37.293Z,2.43
2022-09-17T01:58:28.302Z,3.67
2022-09-17T02:01:20.111Z,3.57
2022-09-17T02:04:11.288Z,2.70
2022-09-17T02:07:03.246Z,2.53
2022-09-17T02:10:06.709Z,2.50
2022-09-17T02:13:08.190Z,2.60
2022-09-17T02:16:10.863Z,2.23
2022-09-17T02:19:10.663Z,1.70
2022-09-17T02:22:50.188Z,3.27
2022-09-17T02:25:50.532Z,2.37
2022-09-17T02:28:48.105Z,2.40
2022-09-17T02:31:33.685Z,3.80
2022-09-17T02:34:20.270Z,2.67
2022-09-17T02:37:06.802Z,2.63
2022-09-17T02:39:52.556Z,2.90
2022-09-17T02:42:50.749Z,2.50
2022-09-17T02:46:08.196Z,2.87
2022-09-17T02:49:12.496Z,2.63
2022-09-17T02:52:22.486Z,2.70
2022-09-17T02:55:07.567Z,9.50
2022-09-17T02:58:10.273Z,7.93
2022-09-17T03:01:01.958Z,7.33
2022-09-17T03:03:51.178Z,7.53
2022-09-17T03:06:36.490Z,5.80
2022-09-17T03:09:21.911Z,8.30
2022-09-17T03:12:07.270Z,6.30
2022-09-17T03:14:52.480Z,6.73
2022-09-17T03:17:38.013Z,5.83
2022-09-17T03:20:23.307Z,6.60
2022-09-17T03:23:08.707Z,8.77
2022-09-17T03:25:55.202Z,5.83
2022-09-17T03:28:40.253Z,11.03
2022-09-17T03:31:25.449Z,6.03
2022-09-17T03:34:10.542Z,5.80
2022-09-17T03:36:55.930Z,5.17
2022-09-17T03:39:41.016Z,6.70
2022-09-17T03:42:26.320Z,6.90
2022-09-17T03:45:11.728Z,4.80
2022-09-17T03:47:57.288Z,5.97
2022-09-17T03:50:43.781Z,5.60
2022-09-17T03:53:29.237Z,4.93
2022-09-17T03:56:14.648Z,3.20
2022-09-17T03:59:01.204Z,5.57
2022-09-17T04:01:46.843Z,5.10
2022-09-17T04:04:32.559Z,5.00
2022-09-17T04:07:17.703Z,4.17
2022-09-17T04:10:04.976Z,3.23
2022-09-17T04:12:50.192Z,4.23
2022-09-17T04:15:35.459Z,4.63
2022-09-17T04:18:20.701Z,4.73
2022-09-17T04:21:06.453Z,3.67
2022-09-17T04:23:51.748Z,4.53
2022-09-17T04:26:37.244Z,4.97
2022-09-17T04:29:22.411Z,3.47
2022-09-17T04:32:07.992Z,2.87
2022-09-17T04:34:53.340Z,5.00
2022-09-17T04:37:39.499Z,3.30
2022-09-17T04:40:26.231Z,6.27
2022-09-17T04:43:11.690Z,3.87
2022-09-17T04:45:56.974Z,3.13
2022-09-17T04:48:42.416Z,4.57
2022-09-17T04:51:27.989Z,3.27
2022-09-17T04:54:14.663Z,4.27
2022-09-17T04:57:00.965Z,2.87
2022-09-17T04:59:46.429Z,4.77
2022-09-17T05:02:32.207Z,3.30
2022-09-17T05:05:18.879Z,2.63
2022-09-17T05:08:04.434Z,2.77
2022-09-17T05:10:51.508Z,2.67
2022-09-17T05:13:37.005Z,2.37
2022-09-17T05:16:22.658Z,6.03
2022-09-17T05:19:08.338Z,3.30
2022-09-17T05:21:53.826Z,2.27
2022-09-17T05:24:39.778Z,3.43
2022-09-17T05:27:25.117Z,3.03
2022-09-17T05:30:11.977Z,3.03
2022-09-17T05:33:05.813Z,2.90
2022-09-17T05:35:51.593Z,2.70
2022-09-17T05:38:37.579Z,2.00
2022-09-17T05:41:23.099Z,4.50
2022-09-17T05:44:08.295Z,2.03
2022-09-17T05:46:54.395Z,3.57
2022-09-17T05:49:40.354Z,4.47
2022-09-17T05:52:29.659Z,3.40
2022-09-17T05:55:14.827Z,5.27
2022-09-17T05:58:00.741Z,3.87
2022-09-17T06:00:47.551Z,3.27
2022-09-17T06:03:33.479Z,3.00
2022-09-17T06:06:18.908Z,3.27
2022-09-17T06:09:06.003Z,4.90
2022-09-17T06:11:51.281Z,3.20
2022-09-17T06:14:36.587Z,2.70
2022-09-17T06:17:22.379Z,2.50
2022-09-17T06:20:07.786Z,2.10
2022-09-17T06:22:57.608Z,4.60
2022-09-17T06:25:43.140Z,3.60
2022-09-17T06:28:29.023Z,4.27
2022-09-17T06:31:14.479Z,5.87
2022-09-17T06:34:01.725Z,6.00
2022-09-17T06:36:48.923Z,3.97
2022-09-17T06:39:34.454Z,4.70
2022-09-17T06:42:19.861Z,2.93
2022-09-17T06:45:08.714Z,4.97
2022-09-17T06:47:56.388Z,3.30
2022-09-17T06:50:42.878Z,2.90
2022-09-17T06:53:30.625Z,2.77
2022-09-17T06:56:16.201Z,5.97
2022-09-17T06:59:02.185Z,4.67
2022-09-17T07:01:48.120Z,4.40
2022-09-17T07:04:33.497Z,3.77
2022-09-17T07:07:18.821Z,3.60
2022-09-17T07:10:04.469Z,6.90
2022-09-17T07:12:50.205Z,4.87
2022-09-17T07:15:35.757Z,5.93
2022-09-17T07:18:22.435Z,6.10
2022-09-17T07:21:08.102Z,6.60
2022-09-17T07:23:53.492Z,7.83
2022-09-17T07:26:38.653Z,7.60
2022-09-17T07:29:26.346Z,4.90
2022-09-17T07:32:11.579Z,3.63
2022-09-17T07:34:57.202Z,6.17
2022-09-17T07:37:42.642Z,6.40
2022-09-17T07:40:27.928Z,8.73
2022-09-17T07:43:13.007Z,7.93
2022-09-17T07:46:00.041Z,11.20
2022-09-17T07:48:46.928Z,4.37
2022-09-17T07:51:32.685Z,5.80
2022-09-17T07:54:18.019Z,5.87
2022-09-17T07:57:04.312Z,6.67
2022-09-17T07:59:49.667Z,8.37
2022-09-17T08:02:35.158Z,5.37
2022-09-17T08:05:21.557Z,5.97
2022-09-17T08:08:06.869Z,8.00
2022-09-17T08:10:52.275Z,8.80
2022-09-17T08:13:37.849Z,7.30
2022-09-17T08:16:24.965Z,5.57
2022-09-17T08:19:11.017Z,4.93
2022-09-17T08:21:56.753Z,5.93
2022-09-17T08:24:42.569Z,9.70
2022-09-17T08:27:29.734Z,12.27
2022-09-17T08:30:15.323Z,9.53
2022-09-17T08:33:00.654Z,7.07
2022-09-17T08:35:53.336Z,3.93
2022-09-17T08:38:39.938Z,5.93
2022-09-17T08:41:40.574Z,7.00
2022-09-17T08:45:00.477Z,5.77
2022-09-17T08:47:48.632Z,7.27
2022-09-17T08:50:39.213Z,5.07
2022-09-17T08:53:39.062Z,6.13
2022-09-17T08:56:27.658Z,5.57
2022-09-17T09:00:03.803Z,8.93
2022-09-17T09:03:31.691Z,8.10
2022-09-17T09:06:19.731Z,11.07
2022-09-17T09:09:15.868Z,10.07
2022-09-17T09:12:05.099Z,4.87
2022-09-17T09:15:01.329Z,6.87
2022-09-17T09:17:49.996Z,3.27
2022-09-17T09:20:57.622Z,4.97
2022-09-17T09:24:16.757Z,6.00
2022-09-17T09:27:05.204Z,7.17
2022-09-17T09:29:53.799Z,4.33
2022-09-17T09:32:54.106Z,5.13
2022-09-17T09:35:43.083Z,4.87
2022-09-17T09:38:34.207Z,7.03
2022-09-17T09:41:36.807Z,3.03
2022-09-17T09:44:25.037Z,5.33
2022-09-17T09:47:22.756Z,4.77
2022-09-17T09:50:38.418Z,5.07
2022-09-17T09:54:11.103Z,4.20
2022-09-17T09:59:43.687Z,4.37
2022-09-17T10:02:29.363Z,6.10
2022-09-17T10:05:14.818Z,5.40
2022-09-17T10:08:00.664Z,4.47
2022-09-17T10:10:58.680Z,3.80
2022-09-17T10:13:44.224Z,4.43
2022-09-17T10:16:31.276Z,3.37
2022-09-17T10:19:25.951Z,2.83
2022-09-17T10:22:30.475Z,7.27
2022-09-17T10:25:28.851Z,5.23
2022-09-17T10:28:46.859Z,3.87
2022-09-17T10:32:15.012Z,7.17
2022-09-17T10:35:04.544Z,3.23
2022-09-17T10:37:52.000Z,3.57
2022-09-17T10:40:37.393Z,4.27
2022-09-17T10:43:23.662Z,9.60
2022-09-17T10:46:14.163Z,3.90
2022-09-17T10:49:23.318Z,6.30
2022-09-17T10:52:12.161Z,7.30
2022-09-17T10:55:19.580Z,4.57
2022-09-17T10:58:07.792Z,5.93
2022-09-17T11:01:11.946Z,3.97
2022-09-17T11:04:03.982Z,5.10
2022-09-17T11:07:15.298Z,5.70
2022-09-17T11:10:23.720Z,5.87
2022-09-17T11:13:37.595Z,4.43
2022-09-17T11:16:22.752Z,2.80
2022-09-17T11:19:23.571Z,3.60
2022-09-17T11:22:27.666Z,7.43
2022-09-17T11:25:34.980Z,5.40
2022-09-17T11:28:33.977Z,6.03
2022-09-17T11:31:31.797Z,8.13
2022-09-17T11:34:29.313Z,5.43
2022-09-17T11:37:25.012Z,8.50
2022-09-17T11:40:11.787Z,5.57
2022-09-17T11:43:08.825Z,4.77
2022-09-17T11:46:08.694Z,3.37
2022-09-17T11:49:12.590Z,5.07
2022-09-17T11:52:07.432Z,4.27
2022-09-17T11:54:58.614Z,2.47
2022-09-17T11:57:44.981Z,4.53
2022-09-17T12:00:36.633Z,6.20
2022-09-17T12:03:32.355Z,4.17
2022-09-17T12:06:44.694Z,8.23
2022-09-17T12:09:36.640Z,4.37
2022-09-17T12:12:48.293Z,4.57
2022-09-17T12:15:35.551Z,5.67
2022-09-17T12:18:47.051Z,4.23
2022-09-17T12:21:44.633Z,6.37
2022-09-17T12:24:31.131Z,4.53
2022-09-17T12:27:28.781Z,7.97
2022-09-17T12:30:15.174Z,6.33
2022-09-17T12:33:38.891Z,6.47
2022-09-17T12:36:50.246Z,6.53
2022-09-17T12:39:55.910Z,9.53
2022-09-17T12:42:59.894Z,10.60
2022-09-17T12:45:54.272Z,9.70
2022-09-17T12:48:52.941Z,8.70
2022-09-17T12:51:47.521Z,2.77
2022-09-17T12:54:57.832Z,7.23
2022-09-17T12:57:55.732Z,7.60
2022-09-17T13:01:03.910Z,8.17
2022-09-17T13:04:33.668Z,5.93
2022-09-17T13:07:44.223Z,7.50
2022-09-17T13:10:55.520Z,11.97
2022-09-17T13:13:53.865Z,7.53
2022-09-17T13:17:11.992Z,6.00
2022-09-17T13:20:11.018Z,9.50
2022-09-17T13:22:58.259Z,7.33
2022-09-17T13:25:53.154Z,5.43
2022-09-17T13:28:47.953Z,4.97
2022-09-17T13:31:39.524Z,6.00
2022-09-17T13:34:30.529Z,8.80
2022-09-17T13:37:20.512Z,6.00
2022-09-17T13:40:33.294Z,6.73
2022-09-17T13:43:24.050Z,6.13
2022-09-17T13:46:12.563Z,6.73
2022-09-17T13:49:02.375Z,9.57
2022-09-17T13:51:50.647Z,9.77
2022-09-17T13:54:38.719Z,7.73
2022-09-17T13:57:25.159Z,4.93
2022-09-17T14:00:48.774Z,6.77
2022-09-17T14:03:34.305Z,4.60
2022-09-17T14:06:21.868Z,8.07
2022-09-17T14:09:47.139Z,8.03
2022-09-17T14:12:41.606Z,11.03
2022-09-17T14:15:36.192Z,7.43
2022-09-17T14:18:27.640Z,7.17
2022-09-17T14:21:24.101Z,10.70
2022-09-17T14:24:32.312Z,5.40
2022-09-17T14:27:20.637Z,3.00
2022-09-17T14:30:31.070Z,4.70
2022-09-17T14:33:32.000Z,7.23
2022-09-17T14:36:20.532Z,4.47
2022-09-17T14:39:16.071Z,4.30
2022-09-17T14:42:01.776Z,4.87
2022-09-17T14:44:58.806Z,8.43
2022-09-17T14:47:44.000Z,5.13
2022-09-17T14:50:29.397Z,8.00
2022-09-17T14:53:18.178Z,7.50
2022-09-17T14:56:03.873Z,8.43
2022-09-17T14:58:52.734Z,11.13
2022-09-17T15:01:38.056Z,20.47
2022-09-17T15:04:28.406Z,62.47
2022-09-17T15:07:13.750Z,129.60
2022-09-17T15:10:12.613Z,111.40
2022-09-17T15:12:58.487Z,100.30
2022-09-17T15:16:00.813Z,99.17
2022-09-17T15:19:01.633Z,100.97
2022-09-17T15:21:51.273Z,92.43
2022-09-17T15:25:02.691Z,93.77
2022-09-17T15:27:48.592Z,85.90
2022-09-17T15:30:33.855Z,92.23
2022-09-17T15:33:19.734Z,87.27
2022-09-17T15:36:23.447Z,83.60
2022-09-17T15:39:32.280Z,82.95
2022-09-17T15:42:21.198Z,88.63
2022-09-17T15:45:19.729Z,93.40
2022-09-17T15:48:10.925Z,91.60
2022-09-17T15:50:59.012Z,90.87
2022-09-17T15:53:59.274Z,88.20
2022-09-17T15:56:57.067Z,86.43
2022-09-17T15:59:42.860Z,89.80
2022-09-17T16:02:31.679Z,91.43
2022-09-17T16:05:16.948Z,88.60
2022-09-17T16:08:20.314Z,87.40
2022-09-17T16:11:05.611Z,86.43
2022-09-17T16:13:53.371Z,80.33
2022-09-17T16:16:38.851Z,81.40
2022-09-17T16:19:24.016Z,77.57
2022-09-17T16:22:09.274Z,69.30
2022-09-17T16:24:55.003Z,69.77
2022-09-17T16:28:12.364Z,71.70
2022-09-17T16:30:58.829Z,72.40
2022-09-17T16:33:44.775Z,71.07
2022-09-17T16:36:32.171Z,72.00
2022-09-17T16:39:17.373Z,69.50
2022-09-17T16:42:02.572Z,76.70
2022-09-17T16:44:48.281Z,69.63
2022-09-17T16:47:41.574Z,68.83
2022-09-17T16:50:27.394Z,67.43
2022-09-17T16:53:13.014Z,72.40
2022-09-17T16:55:58.487Z,64.23
2022-09-17T16:58:44.759Z,65.10
2022-09-17T17:01:32.778Z,61.57
2022-09-17T17:04:18.013Z,65.10
2022-09-17T17:07:03.674Z,59.40
2022-09-17T17:09:49.587Z,62.50
2022-09-17T17:12:36.895Z,57.50
2022-09-17T17:15:24.393Z,57.80
2022-09-17T17:18:09.683Z,62.37
2022-09-17T17:20:56.330Z,55.40
2022-09-17T17:23:44.139Z,59.73
2022-09-17T17:26:29.823Z,59.83
2022-09-17T17:29:17.084Z,64.07
2022-09-17T17:32:03.763Z,69.00
2022-09-17T17:34:50.641Z,67.90
2022-09-17T17:37:36.435Z,58.50
2022-09-17T17:40:22.347Z,55.83
2022-09-17T17:43:07.762Z,60.57
2022-09-17T17:45:52.911Z,53.33
2022-09-17T17:48:38.590Z,56.63
2022-09-17T17:51:25.609Z,50.53
2022-09-17T17:54:11.041Z,58.50
2022-09-17T17:56:56.428Z,60.13
2022-09-17T17:59:42.035Z,52.83
2022-09-17T18:02:27.460Z,39.73
2022-09-17T18:05:13.218Z,40.17
2022-09-17T18:07:58.652Z,38.00
2022-09-17T18:10:53.847Z,42.40
2022-09-17T18:13:40.449Z,36.57
2022-09-17T18:16:26.556Z,35.10
2022-09-17T18:19:12.849Z,32.93
2022-09-17T18:21:58.417Z,29.93
2022-09-17T18:24:43.771Z,26.50
2022-09-17T18:27:29.195Z,24.80
2022-09-17T18:30:14.603Z,23.73
2022-09-17T18:33:01.095Z,24.23
2022-09-17T18:35:47.463Z,21.97
2022-09-17T18:38:33.217Z,22.53
2022-09-17T18:41:19.527Z,24.57
2022-09-17T18:44:05.178Z,20.70
2022-09-17T18:46:51.529Z,24.20
2022-09-17T18:49:36.900Z,19.67
2022-09-17T18:52:22.101Z,16.70
2022-09-17T18:55:07.918Z,17.20
2022-09-17T18:57:53.438Z,17.97
2022-09-17T19:00:40.782Z,16.97
2022-09-17T19:03:26.168Z,17.27
2022-09-17T19:06:14.191Z,24.43
2022-09-17T19:09:02.185Z,26.23
2022-09-17T19:11:47.704Z,16.93
2022-09-17T19:14:33.071Z,17.47
2022-09-17T19:17:18.277Z,21.47
2022-09-17T19:20:04.582Z,19.43
2022-09-17T19:22:50.052Z,24.83
2022-09-17T19:25:36.521Z,19.93
2022-09-17T19:28:23.085Z,26.30
2022-09-17T19:31:11.622Z,24.30
2022-09-17T19:33:58.496Z,28.33
2022-09-17T19:36:43.983Z,25.17
2022-09-17T19:39:29.252Z,17.70
2022-09-17T19:42:14.669Z,21.10
2022-09-17T19:44:59.718Z,20.07
2022-09-17T19:47:44.883Z,21.10
2022-09-17T19:50:31.761Z,28.53
2022-09-17T19:53:16.863Z,19.97
2022-09-17T19:56:02.389Z,24.23
2022-09-17T19:58:48.019Z,20.97
2022-09-17T20:01:35.090Z,22.20
2022-09-17T20:04:20.210Z,22.80
2022-09-17T20:07:05.500Z,20.50
2022-09-17T20:09:50.944Z,19.07
2022-09-17T20:12:36.197Z,21.80
2022-09-17T20:15:21.506Z,19.97
2022-09-17T20:18:06.788Z,20.07
2022-09-17T20:20:51.976Z,17.33
2022-09-17T20:23:37.469Z,18.53
2022-09-17T20:26:23.071Z,18.37
2022-09-17T20:29:08.505Z,18.70
2022-09-17T20:31:53.810Z,20.17
2022-09-17T20:34:38.952Z,18.07
2022-09-17T20:37:47.097Z,17.07
2022-09-17T20:40:30.450Z,17.67
2022-09-17T20:43:15.865Z,16.60
2022-09-17T20:46:02.115Z,18.57
2022-09-17T20:48:47.587Z,18.07
2022-09-17T20:51:33.969Z,21.93
2022-09-17T20:54:19.689Z,20.23
2022-09-17T20:57:04.850Z,19.63
2022-09-17T20:59:53.216Z,17.00
2022-09-17T21:02:40.870Z,20.13
2022-09-17T21:05:26.262Z,22.03
2022-09-17T21:08:11.727Z,18.30
2022-09-17T21:10:57.262Z,15.17
2022-09-17T21:13:42.570Z,17.67
2022-09-17T21:16:28.705Z,20.50
2022-09-17T21:19:16.186Z,20.97
2022-09-17T21:22:01.845Z,16.60
2022-09-17T21:24:47.151Z,20.97
2022-09-17T21:27:32.713Z,19.27
2022-09-17T21:30:18.337Z,17.93
2022-09-17T21:33:03.539Z,17.63
2022-09-17T21:35:50.722Z,20.53
2022-09-17T21:38:36.882Z,18.30
2022-09-17T21:41:23.370Z,19.60
2022-09-17T21:44:09.046Z,16.90
2022-09-17T21:46:57.586Z,18.67
2022-09-17T21:49:44.427Z,22.40
2022-09-17T21:52:30.067Z,17.77
2022-09-17T21:55:15.357Z,19.63
2022-09-17T21:58:00.524Z,19.57
2022-09-17T22:00:45.875Z,17.27
2022-09-17T22:03:31.083Z,21.43
2022-09-17T22:06:23.815Z,16.70
2022-09-17T22:09:18.096Z,17.85
2022-09-17T22:12:06.456Z,17.17
2022-09-17T22:14:51.969Z,17.23
2022-09-17T22:17:37.642Z,18.30
2022-09-17T22:20:25.516Z,16.03
2022-09-17T22:23:11.228Z,13.63
2022-09-17T22:26:05.042Z,13.90
2022-09-17T22:28:51.277Z,15.03
2022-09-17T22:31:36.771Z,13.93
2022-09-17T22:34:23.396Z,14.73
2022-09-17T22:37:09.022Z,16.87
2022-09-17T22:39:54.245Z,15.37
2022-09-17T22:42:39.580Z,13.77
2022-09-17T22:45:24.722Z,18.03
2022-09-17T22:48:10.052Z,15.57
2022-09-17T22:50:55.142Z,19.43
2022-09-17T22:53:41.430Z,13.30
2022-09-17T22:56:28.459Z,13.50
2022-09-17T22:59:13.892Z,16.77
2022-09-17T23:01:59.234Z,11.80
2022-09-17T23:04:44.506Z,13.40
2022-09-17T23:07:29.796Z,14.20
2022-09-17T23:10:15.295Z,14.63
2022-09-17T23:13:00.663Z,15.67
2022-09-17T23:15:46.325Z,13.53
2022-09-17T23:18:32.620Z,13.57
2022-09-17T23:21:19.414Z,10.40
2022-09-17T23:24:04.897Z,10.20
2022-09-17T23:26:50.543Z,14.90
2022-09-17T23:29:35.643Z,13.80
2022-09-17T23:32:20.904Z,12.20
2022-09-17T23:35:06.607Z,11.57
2022-09-17T23:37:52.233Z,11.17
2022-09-17T23:40:38.361Z,12.17
2022-09-17T23:43:24.066Z,12.97
2022-09-17T23:46:09.369Z,13.13
2022-09-17T23:48:54.836Z,12.47
2022-09-17T23:51:40.807Z,13.60
2022-09-17T23:54:26.275Z,12.07
2022-09-17T23:57:11.631Z,13.93
2022-09-17T23:59:56.821Z,10.33
